Edgewood, New Mexico
Current Conditions -  °F | °C
As of 3:15 PM on Tuesday 21 Oct 2014 (Local Time) from K0E0 Reporting Station
Moderate Rain Moderate Rain  
Wind Chill: 55°   Ceiling: 3600
Heat Index: 55°   Visibility: 10mi
Dew Point: 49°   Wind: 12mph
Humidity: 80%   Direction: 240°WSW
Pressure: 30.15"   Gusts: NA
Location:  35.06°N, 106.19°W
Report Text: K0E0 212115Z AUTO 24010KT 10SM RA BKN036 BKN041 OVC049 13/10 A3015 RMK AO2 T01290095
Loading
Personal Weather Stations






























Interactive Weather Map
Tropical Storm Tracking
New forecast layout! Learn more

10-Day Weather Forecast

Advertisements
Track Severe Weather on mobile